sensor_id;sensor_type;location;lat;lon;timestamp;temperature;humidity
9437;DHT22;4757;59.334;18.034;2023-04-24T00:01:15;7.10;99.90
9437;DHT22;4757;59.334;18.034;2023-04-24T00:03:43;7.10;99.90
9437;DHT22;4757;59.334;18.034;2023-04-24T00:06:11;7.00;99.90
9437;DHT22;4757;59.334;18.034;2023-04-24T00:08:38;7.10;99.90
9437;DHT22;4757;59.334;18.034;2023-04-24T00:11:05;7.10;99.90
9437;DHT22;4757;59.334;18.034;2023-04-24T00:13:32;7.10;99.90
9437;DHT22;4757;59.334;18.034;2023-04-24T00:15:59;7.10;99.90
9437;DHT22;4757;59.334;18.034;2023-04-24T00:18:26;7.00;99.90
9437;DHT22;4757;59.334;18.034;2023-04-24T00:20:53;7.00;99.90
9437;DHT22;4757;59.334;18.034;2023-04-24T00:23:20;7.00;99.90
9437;DHT22;4757;59.334;18.034;2023-04-24T00:25:47;7.00;99.90
9437;DHT22;4757;59.334;18.034;2023-04-24T00:28:14;7.00;99.90
9437;DHT22;4757;59.334;18.034;2023-04-24T00:30:57;7.00;99.90
9437;DHT22;4757;59.334;18.034;2023-04-24T00:33:24;6.90;99.90
9437;DHT22;4757;59.334;18.034;2023-04-24T00:35:51;6.80;99.90
9437;DHT22;4757;59.334;18.034;2023-04-24T00:38:18;6.70;99.90
9437;DHT22;4757;59.334;18.034;2023-04-24T00:40:48;6.80;99.90
9437;DHT22;4757;59.334;18.034;2023-04-24T00:43:16;6.80;99.90
9437;DHT22;4757;59.334;18.034;2023-04-24T00:45:44;6.70;99.90
9437;DHT22;4757;59.334;18.034;2023-04-24T00:48:14;6.70;99.90
9437;DHT22;4757;59.334;18.034;2023-04-24T00:50:43;6.80;99.90
9437;DHT22;4757;59.334;18.034;2023-04-24T00:53:10;6.80;99.90
9437;DHT22;4757;59.334;18.034;2023-04-24T00:55:37;6.90;99.90
9437;DHT22;4757;59.334;18.034;2023-04-24T00:58:04;6.90;99.90
9437;DHT22;4757;59.334;18.034;2023-04-24T01:00:32;6.90;99.90
9437;DHT22;4757;59.334;18.034;2023-04-24T01:02:59;6.90;99.90
9437;DHT22;4757;59.334;18.034;2023-04-24T01:05:28;6.90;99.90
9437;DHT22;4757;59.334;18.034;2023-04-24T01:07:55;6.80;99.90
9437;DHT22;4757;59.334;18.034;2023-04-24T01:10:23;6.70;99.90
9437;DHT22;4757;59.334;18.034;2023-04-24T01:12:51;6.70;99.90
9437;DHT22;4757;59.334;18.034;2023-04-24T01:15:19;6.80;99.90
9437;DHT22;4757;59.334;18.034;2023-04-24T01:17:46;6.80;99.90
9437;DHT22;4757;59.334;18.034;2023-04-24T01:20:13;6.80;99.90
9437;DHT22;4757;59.334;18.034;2023-04-24T01:22:42;6.70;99.90
9437;DHT22;4757;59.334;18.034;2023-04-24T01:25:09;6.70;99.90
9437;DHT22;4757;59.334;18.034;2023-04-24T01:27:36;6.70;99.90
9437;DHT22;4757;59.334;18.034;2023-04-24T01:30:04;6.80;99.90
9437;DHT22;4757;59.334;18.034;2023-04-24T01:32:32;6.80;99.90
9437;DHT22;4757;59.334;18.034;2023-04-24T01:35:00;6.70;99.90
9437;DHT22;4757;59.334;18.034;2023-04-24T01:37:27;6.70;99.90
9437;DHT22;4757;59.334;18.034;2023-04-24T01:39:54;6.70;99.90
9437;DHT22;4757;59.334;18.034;2023-04-24T01:42:21;6.60;99.90
9437;DHT22;4757;59.334;18.034;2023-04-24T01:44:49;6.70;99.90
9437;DHT22;4757;59.334;18.034;2023-04-24T01:47:16;6.70;99.90
9437;DHT22;4757;59.334;18.034;2023-04-24T01:49:45;6.80;99.90
9437;DHT22;4757;59.334;18.034;2023-04-24T01:52:14;6.70;99.90
9437;DHT22;4757;59.334;18.034;2023-04-24T01:54:41;6.70;99.90
9437;DHT22;4757;59.334;18.034;2023-04-24T01:57:08;6.70;99.90
9437;DHT22;4757;59.334;18.034;2023-04-24T01:59:35;6.70;99.90
9437;DHT22;4757;59.334;18.034;2023-04-24T02:02:03;6.80;99.90
9437;DHT22;4757;59.334;18.034;2023-04-24T02:04:30;6.70;99.90
9437;DHT22;4757;59.334;18.034;2023-04-24T02:06:57;6.70;99.90
9437;DHT22;4757;59.334;18.034;2023-04-24T02:09:24;6.70;99.90
9437;DHT22;4757;59.334;18.034;2023-04-24T02:11:51;6.70;99.90
9437;DHT22;4757;59.334;18.034;2023-04-24T02:14:18;6.70;99.90
9437;DHT22;4757;59.334;18.034;2023-04-24T02:16:48;6.60;99.90
9437;DHT22;4757;59.334;18.034;2023-04-24T02:19:15;6.60;99.90
9437;DHT22;4757;59.334;18.034;2023-04-24T02:21:42;6.50;99.90
9437;DHT22;4757;59.334;18.034;2023-04-24T02:24:09;6.40;99.90
9437;DHT22;4757;59.334;18.034;2023-04-24T02:26:36;6.20;99.90
9437;DHT22;4757;59.334;18.034;2023-04-24T02:29:03;6.10;99.90
9437;DHT22;4757;59.334;18.034;2023-04-24T02:31:30;6.10;99.90
9437;DHT22;4757;59.334;18.034;2023-04-24T02:33:57;6.00;99.90
9437;DHT22;4757;59.334;18.034;2023-04-24T02:36:24;5.90;99.90
9437;DHT22;4757;59.334;18.034;2023-04-24T02:38:51;6.00;99.90
9437;DHT22;4757;59.334;18.034;2023-04-24T02:41:18;5.90;99.90
9437;DHT22;4757;59.334;18.034;2023-04-24T02:43:46;5.80;99.90
9437;DHT22;4757;59.334;18.034;2023-04-24T02:46:13;5.80;99.90
9437;DHT22;4757;59.334;18.034;2023-04-24T02:48:40;5.80;99.90
9437;DHT22;4757;59.334;18.034;2023-04-24T02:51:07;5.70;99.90
9437;DHT22;4757;59.334;18.034;2023-04-24T02:53:35;5.70;99.90
9437;DHT22;4757;59.334;18.034;2023-04-24T02:56:02;5.80;99.90
9437;DHT22;4757;59.334;18.034;2023-04-24T02:58:29;5.80;99.90
9437;DHT22;4757;59.334;18.034;2023-04-24T03:00:57;5.70;99.90
9437;DHT22;4757;59.334;18.034;2023-04-24T03:03:24;5.60;99.90
9437;DHT22;4757;59.334;18.034;2023-04-24T03:05:54;5.50;99.90
9437;DHT22;4757;59.334;18.034;2023-04-24T03:08:22;5.60;99.90
9437;DHT22;4757;59.334;18.034;2023-04-24T03:10:49;5.50;99.90
9437;DHT22;4757;59.334;18.034;2023-04-24T03:13:16;5.50;99.90
9437;DHT22;4757;59.334;18.034;2023-04-24T03:15:43;5.60;99.90
9437;DHT22;4757;59.334;18.034;2023-04-24T03:18:11;5.60;99.90
9437;DHT22;4757;59.334;18.034;2023-04-24T03:20:38;5.30;99.90
9437;DHT22;4757;59.334;18.034;2023-04-24T03:23:06;5.40;99.90
9437;DHT22;4757;59.334;18.034;2023-04-24T03:25:33;5.40;99.90
9437;DHT22;4757;59.334;18.034;2023-04-24T03:28:00;5.50;99.90
9437;DHT22;4757;59.334;18.034;2023-04-24T03:30:27;5.50;99.90
9437;DHT22;4757;59.334;18.034;2023-04-24T03:32:54;5.50;99.90
9437;DHT22;4757;59.334;18.034;2023-04-24T03:35:21;5.40;99.90
9437;DHT22;4757;59.334;18.034;2023-04-24T03:37:48;5.40;99.90
9437;DHT22;4757;59.334;18.034;2023-04-24T03:40:15;5.40;99.90
9437;DHT22;4757;59.334;18.034;2023-04-24T03:42:42;5.40;99.90
9437;DHT22;4757;59.334;18.034;2023-04-24T03:45:10;5.50;99.90
9437;DHT22;4757;59.334;18.034;2023-04-24T03:47:37;5.50;99.90
9437;DHT22;4757;59.334;18.034;2023-04-24T03:50:04;5.30;99.90
9437;DHT22;4757;59.334;18.034;2023-04-24T03:52:31;5.30;99.90
9437;DHT22;4757;59.334;18.034;2023-04-24T03:54:58;5.20;99.90
9437;DHT22;4757;59.334;18.034;2023-04-24T03:57:25;5.20;99.90
9437;DHT22;4757;59.334;18.034;2023-04-24T03:59:52;5.10;99.90
9437;DHT22;4757;59.334;18.034;2023-04-24T04:02:20;5.30;99.90
9437;DHT22;4757;59.334;18.034;2023-04-24T04:04:48;5.10;99.90
9437;DHT22;4757;59.334;18.034;2023-04-24T04:07:16;5.10;99.90
9437;DHT22;4757;59.334;18.034;2023-04-24T04:09:43;5.10;99.90
9437;DHT22;4757;59.334;18.034;2023-04-24T04:12:13;5.20;99.90
9437;DHT22;4757;59.334;18.034;2023-04-24T04:14:41;5.20;99.90
9437;DHT22;4757;59.334;18.034;2023-04-24T04:17:08;5.10;99.90
9437;DHT22;4757;59.334;18.034;2023-04-24T04:19:35;5.20;99.90
9437;DHT22;4757;59.334;18.034;2023-04-24T04:22:02;5.10;99.90
9437;DHT22;4757;59.334;18.034;2023-04-24T04:24:29;5.10;99.90
9437;DHT22;4757;59.334;18.034;2023-04-24T04:26:56;4.90;99.90
9437;DHT22;4757;59.334;18.034;2023-04-24T04:29:24;5.10;99.90
9437;DHT22;4757;59.334;18.034;2023-04-24T04:31:52;5.20;99.90
9437;DHT22;4757;59.334;18.034;2023-04-24T04:34:19;5.00;99.90
9437;DHT22;4757;59.334;18.034;2023-04-24T04:36:46;4.90;99.90
9437;DHT22;4757;59.334;18.034;2023-04-24T04:39:13;4.90;99.90
9437;DHT22;4757;59.334;18.034;2023-04-24T04:41:41;4.90;99.90
9437;DHT22;4757;59.334;18.034;2023-04-24T04:44:08;4.90;99.90
9437;DHT22;4757;59.334;18.034;2023-04-24T04:46:36;4.90;99.90
9437;DHT22;4757;59.334;18.034;2023-04-24T04:49:04;5.00;99.90
9437;DHT22;4757;59.334;18.034;2023-04-24T04:51:31;5.00;99.90
9437;DHT22;4757;59.334;18.034;2023-04-24T04:53:58;5.10;99.90
9437;DHT22;4757;59.334;18.034;2023-04-24T04:56:25;5.20;99.90
9437;DHT22;4757;59.334;18.034;2023-04-24T04:58:52;5.10;99.90
9437;DHT22;4757;59.334;18.034;2023-04-24T05:01:20;5.00;99.90
9437;DHT22;4757;59.334;18.034;2023-04-24T05:03:48;4.90;99.90
9437;DHT22;4757;59.334;18.034;2023-04-24T05:06:15;4.80;99.90
9437;DHT22;4757;59.334;18.034;2023-04-24T05:08:42;4.80;99.90
9437;DHT22;4757;59.334;18.034;2023-04-24T05:11:09;4.90;99.90
9437;DHT22;4757;59.334;18.034;2023-04-24T05:13:36;4.90;99.90
9437;DHT22;4757;59.334;18.034;2023-04-24T05:16:07;5.10;99.90
9437;DHT22;4757;59.334;18.034;2023-04-24T05:18:34;5.00;99.90
9437;DHT22;4757;59.334;18.034;2023-04-24T05:21:01;5.10;99.90
9437;DHT22;4757;59.334;18.034;2023-04-24T05:23:28;5.30;99.90
9437;DHT22;4757;59.334;18.034;2023-04-24T05:25:55;5.40;99.90
9437;DHT22;4757;59.334;18.034;2023-04-24T05:28:22;5.20;99.90
9437;DHT22;4757;59.334;18.034;2023-04-24T05:30:49;5.10;99.90
9437;DHT22;4757;59.334;18.034;2023-04-24T05:33:17;5.10;99.90
9437;DHT22;4757;59.334;18.034;2023-04-24T05:35:44;5.10;99.90
9437;DHT22;4757;59.334;18.034;2023-04-24T05:38:14;5.00;99.90
9437;DHT22;4757;59.334;18.034;2023-04-24T05:40:44;5.00;99.90
9437;DHT22;4757;59.334;18.034;2023-04-24T05:43:12;5.00;99.90
9437;DHT22;4757;59.334;18.034;2023-04-24T05:45:39;5.10;99.90
9437;DHT22;4757;59.334;18.034;2023-04-24T05:48:06;5.20;99.90
9437;DHT22;4757;59.334;18.034;2023-04-24T05:50:33;5.20;99.90
9437;DHT22;4757;59.334;18.034;2023-04-24T05:53:03;5.10;99.90
9437;DHT22;4757;59.334;18.034;2023-04-24T05:55:31;5.10;99.90
9437;DHT22;4757;59.334;18.034;2023-04-24T05:57:58;5.10;99.90
9437;DHT22;4757;59.334;18.034;2023-04-24T06:00:26;5.00;99.90
9437;DHT22;4757;59.334;18.034;2023-04-24T06:02:53;5.00;99.90
9437;DHT22;4757;59.334;18.034;2023-04-24T06:05:21;4.60;99.90
9437;DHT22;4757;59.334;18.034;2023-04-24T06:07:48;4.60;99.90
9437;DHT22;4757;59.334;18.034;2023-04-24T06:10:15;4.70;99.90
9437;DHT22;4757;59.334;18.034;2023-04-24T06:12:43;4.80;99.90
9437;DHT22;4757;59.334;18.034;2023-04-24T06:15:10;4.90;99.90
9437;DHT22;4757;59.334;18.034;2023-04-24T06:17:39;4.90;99.90
9437;DHT22;4757;59.334;18.034;2023-04-24T06:20:07;4.90;99.90
9437;DHT22;4757;59.334;18.034;2023-04-24T06:22:35;5.00;99.90
9437;DHT22;4757;59.334;18.034;2023-04-24T06:25:02;4.90;99.90
9437;DHT22;4757;59.334;18.034;2023-04-24T06:27:29;4.70;99.90
9437;DHT22;4757;59.334;18.034;2023-04-24T06:29:57;4.80;99.90
9437;DHT22;4757;59.334;18.034;2023-04-24T06:32:24;4.70;99.90
9437;DHT22;4757;59.334;18.034;2023-04-24T06:34:52;4.70;99.90
9437;DHT22;4757;59.334;18.034;2023-04-24T06:37:25;4.80;99.90
9437;DHT22;4757;59.334;18.034;2023-04-24T06:39:53;4.80;99.90
9437;DHT22;4757;59.334;18.034;2023-04-24T06:42:20;4.90;99.90
9437;DHT22;4757;59.334;18.034;2023-04-24T06:44:51;4.80;99.90
9437;DHT22;4757;59.334;18.034;2023-04-24T06:47:18;4.80;99.90
9437;DHT22;4757;59.334;18.034;2023-04-24T06:49:45;4.70;99.90
9437;DHT22;4757;59.334;18.034;2023-04-24T06:52:12;4.90;99.90
9437;DHT22;4757;59.334;18.034;2023-04-24T06:54:41;4.80;99.90
9437;DHT22;4757;59.334;18.034;2023-04-24T06:57:09;4.60;99.90
9437;DHT22;4757;59.334;18.034;2023-04-24T06:59:39;4.60;99.90
9437;DHT22;4757;59.334;18.034;2023-04-24T07:02:06;4.70;99.90
9437;DHT22;4757;59.334;18.034;2023-04-24T07:04:33;4.80;99.90
9437;DHT22;4757;59.334;18.034;2023-04-24T07:07:02;4.60;99.90
9437;DHT22;4757;59.334;18.034;2023-04-24T07:09:29;4.60;99.90
9437;DHT22;4757;59.334;18.034;2023-04-24T07:11:56;4.70;99.90
9437;DHT22;4757;59.334;18.034;2023-04-24T07:14:23;4.80;99.90
9437;DHT22;4757;59.334;18.034;2023-04-24T07:16:55;4.90;99.90
9437;DHT22;4757;59.334;18.034;2023-04-24T07:19:23;4.60;99.90
9437;DHT22;4757;59.334;18.034;2023-04-24T07:21:56;4.70;99.90
9437;DHT22;4757;59.334;18.034;2023-04-24T07:24:28;4.70;99.90
9437;DHT22;4757;59.334;18.034;2023-04-24T07:26:56;4.80;99.90
9437;DHT22;4757;59.334;18.034;2023-04-24T07:29:25;4.80;99.90
9437;DHT22;4757;59.334;18.034;2023-04-24T07:31:52;4.80;99.90
9437;DHT22;4757;59.334;18.034;2023-04-24T07:34:21;4.80;99.90
9437;DHT22;4757;59.334;18.034;2023-04-24T07:36:48;4.70;99.90
9437;DHT22;4757;59.334;18.034;2023-04-24T07:39:15;4.90;99.90
9437;DHT22;4757;59.334;18.034;2023-04-24T07:41:42;5.00;99.90
9437;DHT22;4757;59.334;18.034;2023-04-24T07:44:09;4.90;99.90
9437;DHT22;4757;59.334;18.034;2023-04-24T07:46:36;4.90;99.90
9437;DHT22;4757;59.334;18.034;2023-04-24T07:49:04;5.20;99.90
9437;DHT22;4757;59.334;18.034;2023-04-24T07:51:40;5.20;99.90
9437;DHT22;4757;59.334;18.034;2023-04-24T07:54:08;5.20;99.90
9437;DHT22;4757;59.334;18.034;2023-04-24T07:56:36;5.30;99.90
9437;DHT22;4757;59.334;18.034;2023-04-24T07:59:06;5.10;99.90
9437;DHT22;4757;59.334;18.034;2023-04-24T08:01:33;5.20;99.90
9437;DHT22;4757;59.334;18.034;2023-04-24T08:04:00;5.30;99.90
9437;DHT22;4757;59.334;18.034;2023-04-24T08:06:30;5.30;99.90
9437;DHT22;4757;59.334;18.034;2023-04-24T08:08:59;5.40;99.90
9437;DHT22;4757;59.334;18.034;2023-04-24T08:11:27;5.60;99.90
9437;DHT22;4757;59.334;18.034;2023-04-24T08:13:54;5.50;99.90
9437;DHT22;4757;59.334;18.034;2023-04-24T08:16:22;5.50;99.90
9437;DHT22;4757;59.334;18.034;2023-04-24T08:18:51;5.50;99.90
9437;DHT22;4757;59.334;18.034;2023-04-24T08:21:18;5.40;99.90
9437;DHT22;4757;59.334;18.034;2023-04-24T08:23:46;5.30;99.90
9437;DHT22;4757;59.334;18.034;2023-04-24T08:26:13;5.30;99.90
9437;DHT22;4757;59.334;18.034;2023-04-24T08:28:40;5.30;99.90
9437;DHT22;4757;59.334;18.034;2023-04-24T08:31:08;5.50;99.90
9437;DHT22;4757;59.334;18.034;2023-04-24T08:33:35;5.70;99.90
9437;DHT22;4757;59.334;18.034;2023-04-24T08:36:03;5.60;99.90
9437;DHT22;4757;59.334;18.034;2023-04-24T08:38:31;5.50;99.90
9437;DHT22;4757;59.334;18.034;2023-04-24T08:40:59;5.50;99.90
9437;DHT22;4757;59.334;18.034;2023-04-24T08:43:29;5.50;99.90
9437;DHT22;4757;59.334;18.034;2023-04-24T08:45:56;5.30;99.90
9437;DHT22;4757;59.334;18.034;2023-04-24T08:48:38;5.40;99.90
9437;DHT22;4757;59.334;18.034;2023-04-24T08:51:09;5.60;99.90
9437;DHT22;4757;59.334;18.034;2023-04-24T08:53:36;5.60;99.90
9437;DHT22;4757;59.334;18.034;2023-04-24T08:56:03;5.80;99.90
9437;DHT22;4757;59.334;18.034;2023-04-24T08:58:31;5.80;99.90
9437;DHT22;4757;59.334;18.034;2023-04-24T09:01:00;5.90;99.90
9437;DHT22;4757;59.334;18.034;2023-04-24T09:03:28;5.50;99.90
9437;DHT22;4757;59.334;18.034;2023-04-24T09:05:57;5.50;99.90
9437;DHT22;4757;59.334;18.034;2023-04-24T09:08:25;5.70;99.90
9437;DHT22;4757;59.334;18.034;2023-04-24T09:10:53;5.70;99.90
9437;DHT22;4757;59.334;18.034;2023-04-24T09:13:24;5.30;99.90
9437;DHT22;4757;59.334;18.034;2023-04-24T09:16:00;5.40;99.90
9437;DHT22;4757;59.334;18.034;2023-04-24T09:18:29;5.30;99.90
9437;DHT22;4757;59.334;18.034;2023-04-24T09:21:02;5.50;99.90
9437;DHT22;4757;59.334;18.034;2023-04-24T09:23:31;5.80;99.90
9437;DHT22;4757;59.334;18.034;2023-04-24T09:26:01;5.50;99.90
9437;DHT22;4757;59.334;18.034;2023-04-24T09:28:39;5.50;99.90
9437;DHT22;4757;59.334;18.034;2023-04-24T09:31:12;5.70;99.90
9437;DHT22;4757;59.334;18.034;2023-04-24T09:33:55;5.90;99.90
9437;DHT22;4757;59.334;18.034;2023-04-24T09:36:29;5.90;99.90
9437;DHT22;4757;59.334;18.034;2023-04-24T09:39:04;6.00;99.90
9437;DHT22;4757;59.334;18.034;2023-04-24T09:41:33;6.00;99.90
9437;DHT22;4757;59.334;18.034;2023-04-24T09:44:19;6.00;99.90
9437;DHT22;4757;59.334;18.034;2023-04-24T09:46:57;6.10;99.90
9437;DHT22;4757;59.334;18.034;2023-04-24T09:49:28;6.00;99.90
9437;DHT22;4757;59.334;18.034;2023-04-24T09:52:10;5.80;99.90
9437;DHT22;4757;59.334;18.034;2023-04-24T09:54:38;5.80;99.90
9437;DHT22;4757;59.334;18.034;2023-04-24T09:57:07;6.00;99.90
9437;DHT22;4757;59.334;18.034;2023-04-24T09:59:42;6.00;99.90
9437;DHT22;4757;59.334;18.034;2023-04-24T10:02:19;6.00;99.90
9437;DHT22;4757;59.334;18.034;2023-04-24T10:04:57;6.00;99.90
9437;DHT22;4757;59.334;18.034;2023-04-24T10:07:27;6.10;99.90
9437;DHT22;4757;59.334;18.034;2023-04-24T10:09:54;6.30;99.90
9437;DHT22;4757;59.334;18.034;2023-04-24T10:12:21;6.10;99.90
9437;DHT22;4757;59.334;18.034;2023-04-24T10:14:52;6.20;99.90
9437;DHT22;4757;59.334;18.034;2023-04-24T10:17:21;6.20;99.90
9437;DHT22;4757;59.334;18.034;2023-04-24T10:19:48;6.20;99.90
9437;DHT22;4757;59.334;18.034;2023-04-24T10:22:17;6.40;99.90
9437;DHT22;4757;59.334;18.034;2023-04-24T10:24:45;6.50;99.90
9437;DHT22;4757;59.334;18.034;2023-04-24T10:27:14;6.60;99.90
9437;DHT22;4757;59.334;18.034;2023-04-24T10:29:43;6.40;99.90
9437;DHT22;4757;59.334;18.034;2023-04-24T10:32:11;6.00;99.90
9437;DHT22;4757;59.334;18.034;2023-04-24T10:34:38;6.00;99.90
9437;DHT22;4757;59.334;18.034;2023-04-24T10:37:06;6.10;99.90
9437;DHT22;4757;59.334;18.034;2023-04-24T10:39:33;6.30;99.90
9437;DHT22;4757;59.334;18.034;2023-04-24T10:42:16;6.40;99.90
9437;DHT22;4757;59.334;18.034;2023-04-24T10:44:47;6.60;99.90
9437;DHT22;4757;59.334;18.034;2023-04-24T10:47:14;6.50;99.90
9437;DHT22;4757;59.334;18.034;2023-04-24T10:49:41;6.30;99.90
9437;DHT22;4757;59.334;18.034;2023-04-24T10:52:09;6.30;99.90
9437;DHT22;4757;59.334;18.034;2023-04-24T10:54:44;6.40;99.90
9437;DHT22;4757;59.334;18.034;2023-04-24T11:00:20;6.60;99.90
9437;DHT22;4757;59.334;18.034;2023-04-24T11:03:00;6.60;99.90
9437;DHT22;4757;59.334;18.034;2023-04-24T11:06:04;6.60;99.90
9437;DHT22;4757;59.334;18.034;2023-04-24T11:08:43;6.20;99.90
9437;DHT22;4757;59.334;18.034;2023-04-24T11:11:16;6.30;99.90
9437;DHT22;4757;59.334;18.034;2023-04-24T11:22:00;6.40;99.90
9437;DHT22;4757;59.334;18.034;2023-04-24T11:25:01;6.40;99.90
9437;DHT22;4757;59.334;18.034;2023-04-24T11:27:39;6.30;99.90
9437;DHT22;4757;59.334;18.034;2023-04-24T11:30:07;6.20;99.90
9437;DHT22;4757;59.334;18.034;2023-04-24T11:32:42;6.30;99.90
9437;DHT22;4757;59.334;18.034;2023-04-24T11:35:17;6.30;99.90
9437;DHT22;4757;59.334;18.034;2023-04-24T11:37:46;6.40;99.90
9437;DHT22;4757;59.334;18.034;2023-04-24T11:40:37;6.50;99.90
9437;DHT22;4757;59.334;18.034;2023-04-24T11:43:06;6.40;99.90
9437;DHT22;4757;59.334;18.034;2023-04-24T11:45:34;6.40;99.90
9437;DHT22;4757;59.334;18.034;2023-04-24T11:48:02;6.50;99.90
9437;DHT22;4757;59.334;18.034;2023-04-24T11:50:30;6.40;99.90
9437;DHT22;4757;59.334;18.034;2023-04-24T11:52:57;6.40;99.90
9437;DHT22;4757;59.334;18.034;2023-04-24T11:55:27;6.50;99.90
9437;DHT22;4757;59.334;18.034;2023-04-24T11:57:56;6.60;99.90
9437;DHT22;4757;59.334;18.034;2023-04-24T12:00:29;6.60;99.90
9437;DHT22;4757;59.334;18.034;2023-04-24T12:03:10;6.60;99.90
9437;DHT22;4757;59.334;18.034;2023-04-24T12:05:39;6.60;99.90
9437;DHT22;4757;59.334;18.034;2023-04-24T12:08:07;6.70;99.90
9437;DHT22;4757;59.334;18.034;2023-04-24T12:10:37;6.40;99.90
9437;DHT22;4757;59.334;18.034;2023-04-24T12:13:04;6.30;99.90
9437;DHT22;4757;59.334;18.034;2023-04-24T12:15:32;6.10;99.90
9437;DHT22;4757;59.334;18.034;2023-04-24T12:17:59;6.20;99.90
9437;DHT22;4757;59.334;18.034;2023-04-24T12:20:31;6.40;99.90
9437;DHT22;4757;59.334;18.034;2023-04-24T12:23:01;6.30;99.90
9437;DHT22;4757;59.334;18.034;2023-04-24T12:25:32;6.50;99.90
9437;DHT22;4757;59.334;18.034;2023-04-24T12:30:31;6.50;99.90
9437;DHT22;4757;59.334;18.034;2023-04-24T12:32:59;6.60;99.90
9437;DHT22;4757;59.334;18.034;2023-04-24T12:35:28;6.60;99.90
9437;DHT22;4757;59.334;18.034;2023-04-24T12:38:08;6.80;99.90
9437;DHT22;4757;59.334;18.034;2023-04-24T12:40:36;6.80;99.90
9437;DHT22;4757;59.334;18.034;2023-04-24T12:43:19;6.80;99.90
9437;DHT22;4757;59.334;18.034;2023-04-24T12:45:49;6.70;99.90
9437;DHT22;4757;59.334;18.034;2023-04-24T12:48:16;6.80;99.90
9437;DHT22;4757;59.334;18.034;2023-04-24T12:50:44;6.90;99.90
9437;DHT22;4757;59.334;18.034;2023-04-24T12:53:13;6.90;99.90
9437;DHT22;4757;59.334;18.034;2023-04-24T12:55:40;7.00;99.90
9437;DHT22;4757;59.334;18.034;2023-04-24T12:58:10;7.00;99.90
9437;DHT22;4757;59.334;18.034;2023-04-24T13:00:38;6.80;99.90
9437;DHT22;4757;59.334;18.034;2023-04-24T13:03:05;6.60;99.90
9437;DHT22;4757;59.334;18.034;2023-04-24T13:05:33;6.40;99.90
9437;DHT22;4757;59.334;18.034;2023-04-24T13:08:00;6.50;99.90
9437;DHT22;4757;59.334;18.034;2023-04-24T13:10:27;6.40;99.90
9437;DHT22;4757;59.334;18.034;2023-04-24T13:12:54;6.40;99.90
9437;DHT22;4757;59.334;18.034;2023-04-24T13:15:22;6.30;99.90
9437;DHT22;4757;59.334;18.034;2023-04-24T13:17:49;6.00;99.90
9437;DHT22;4757;59.334;18.034;2023-04-24T13:20:17;6.30;99.90
9437;DHT22;4757;59.334;18.034;2023-04-24T13:22:44;6.40;99.90
9437;DHT22;4757;59.334;18.034;2023-04-24T13:25:13;6.20;99.90
9437;DHT22;4757;59.334;18.034;2023-04-24T13:27:43;6.30;99.90
9437;DHT22;4757;59.334;18.034;2023-04-24T13:30:11;6.40;99.90
9437;DHT22;4757;59.334;18.034;2023-04-24T13:32:38;6.40;99.90
9437;DHT22;4757;59.334;18.034;2023-04-24T13:35:05;6.40;99.90
9437;DHT22;4757;59.334;18.034;2023-04-24T13:37:35;6.50;99.90
9437;DHT22;4757;59.334;18.034;2023-04-24T13:40:02;6.50;99.90
9437;DHT22;4757;59.334;18.034;2023-04-24T13:42:33;6.40;99.90
9437;DHT22;4757;59.334;18.034;2023-04-24T13:45:00;6.10;99.90
9437;DHT22;4757;59.334;18.034;2023-04-24T13:47:39;6.20;99.90
9437;DHT22;4757;59.334;18.034;2023-04-24T13:50:08;6.10;99.90
9437;DHT22;4757;59.334;18.034;2023-04-24T13:52:36;6.20;99.90
9437;DHT22;4757;59.334;18.034;2023-04-24T13:55:04;6.20;99.90
9437;DHT22;4757;59.334;18.034;2023-04-24T13:57:31;6.30;99.90
9437;DHT22;4757;59.334;18.034;2023-04-24T13:59:59;6.30;99.90
9437;DHT22;4757;59.334;18.034;2023-04-24T14:02:30;6.30;99.90
9437;DHT22;4757;59.334;18.034;2023-04-24T14:04:58;6.20;99.90
9437;DHT22;4757;59.334;18.034;2023-04-24T14:07:26;6.20;99.90
9437;DHT22;4757;59.334;18.034;2023-04-24T14:09:53;6.10;99.90
9437;DHT22;4757;59.334;18.034;2023-04-24T14:12:20;5.80;99.90
9437;DHT22;4757;59.334;18.034;2023-04-24T14:14:47;6.10;99.90
9437;DHT22;4757;59.334;18.034;2023-04-24T14:17:15;6.10;99.90
9437;DHT22;4757;59.334;18.034;2023-04-24T14:19:42;6.10;99.90
9437;DHT22;4757;59.334;18.034;2023-04-24T14:22:09;6.00;99.90
9437;DHT22;4757;59.334;18.034;2023-04-24T14:24:36;6.10;99.90
9437;DHT22;4757;59.334;18.034;2023-04-24T14:27:03;5.70;99.90
9437;DHT22;4757;59.334;18.034;2023-04-24T14:29:30;5.70;99.90
9437;DHT22;4757;59.334;18.034;2023-04-24T14:32:00;5.80;99.90
9437;DHT22;4757;59.334;18.034;2023-04-24T14:34:30;5.80;99.90
9437;DHT22;4757;59.334;18.034;2023-04-24T14:36:58;6.00;99.90
9437;DHT22;4757;59.334;18.034;2023-04-24T14:39:25;6.10;99.90
9437;DHT22;4757;59.334;18.034;2023-04-24T14:41:53;5.60;99.90
9437;DHT22;4757;59.334;18.034;2023-04-24T14:44:20;5.70;99.90
9437;DHT22;4757;59.334;18.034;2023-04-24T14:46:48;5.80;99.90
9437;DHT22;4757;59.334;18.034;2023-04-24T14:49:16;5.80;99.90
9437;DHT22;4757;59.334;18.034;2023-04-24T14:51:43;5.60;99.90
9437;DHT22;4757;59.334;18.034;2023-04-24T14:54:16;5.50;99.90
9437;DHT22;4757;59.334;18.034;2023-04-24T14:56:44;5.60;99.90
9437;DHT22;4757;59.334;18.034;2023-04-24T14:59:11;5.50;99.90
9437;DHT22;4757;59.334;18.034;2023-04-24T15:01:40;5.50;99.90
9437;DHT22;4757;59.334;18.034;2023-04-24T15:04:07;5.50;99.90
9437;DHT22;4757;59.334;18.034;2023-04-24T15:06:35;5.40;99.90
9437;DHT22;4757;59.334;18.034;2023-04-24T15:09:02;5.60;99.90
9437;DHT22;4757;59.334;18.034;2023-04-24T15:11:32;5.50;99.90
9437;DHT22;4757;59.334;18.034;2023-04-24T15:13:59;5.40;99.90
9437;DHT22;4757;59.334;18.034;2023-04-24T15:16:26;5.40;99.90
9437;DHT22;4757;59.334;18.034;2023-04-24T15:18:56;5.40;99.90
9437;DHT22;4757;59.334;18.034;2023-04-24T15:21:23;5.50;99.90
9437;DHT22;4757;59.334;18.034;2023-04-24T15:23:51;5.50;99.90
9437;DHT22;4757;59.334;18.034;2023-04-24T15:26:18;5.30;99.90
9437;DHT22;4757;59.334;18.034;2023-04-24T15:28:45;5.10;99.90
9437;DHT22;4757;59.334;18.034;2023-04-24T15:31:13;5.30;99.90
9437;DHT22;4757;59.334;18.034;2023-04-24T15:33:41;5.40;99.90
9437;DHT22;4757;59.334;18.034;2023-04-24T15:36:08;5.30;99.90
9437;DHT22;4757;59.334;18.034;2023-04-24T15:38:36;5.40;99.90
9437;DHT22;4757;59.334;18.034;2023-04-24T15:41:03;5.40;99.90
9437;DHT22;4757;59.334;18.034;2023-04-24T15:43:30;5.30;99.90
9437;DHT22;4757;59.334;18.034;2023-04-24T15:46:04;5.40;99.90
9437;DHT22;4757;59.334;18.034;2023-04-24T15:48:31;5.50;99.90
9437;DHT22;4757;59.334;18.034;2023-04-24T15:50:59;5.20;99.90
9437;DHT22;4757;59.334;18.034;2023-04-24T15:53:26;5.10;99.90
9437;DHT22;4757;59.334;18.034;2023-04-24T15:55:54;5.20;99.90
9437;DHT22;4757;59.334;18.034;2023-04-24T15:58:23;5.20;99.90
9437;DHT22;4757;59.334;18.034;2023-04-24T16:00:49;5.10;99.90
9437;DHT22;4757;59.334;18.034;2023-04-24T16:03:17;5.00;99.90
9437;DHT22;4757;59.334;18.034;2023-04-24T16:05:44;5.10;99.90
9437;DHT22;4757;59.334;18.034;2023-04-24T16:08:11;4.90;99.90
9437;DHT22;4757;59.334;18.034;2023-04-24T16:10:41;4.60;99.90
9437;DHT22;4757;59.334;18.034;2023-04-24T16:13:11;4.70;99.90
9437;DHT22;4757;59.334;18.034;2023-04-24T16:15:39;4.70;99.90
9437;DHT22;4757;59.334;18.034;2023-04-24T16:18:07;4.70;99.90
9437;DHT22;4757;59.334;18.034;2023-04-24T16:20:34;4.80;99.90
9437;DHT22;4757;59.334;18.034;2023-04-24T16:23:01;4.90;99.90
9437;DHT22;4757;59.334;18.034;2023-04-24T16:25:29;5.00;99.90